Time,TemperatureF,DewpointF,PressureIn,WindDirection,WindDirectionDegrees,WindSpeedMPH,WindSpeedGustMPH,Humidity,HourlyPrecipIn,Conditions,Clouds,dailyrainin,SoftwareType,DateUTC
2013-05-07 00:10:00,49.8,40.0,29.98,WSW,250,9.0,-999.0,68,-99.99,,,0.00,weatherlink.com 1.10,2013-05-07 07:10:00,
2013-05-07 00:25:00,49.2,39.0,29.99,SW,235,4.0,-999.0,69,-99.99,,,0.00,weatherlink.com 1.10,2013-05-07 07:25:00,
2013-05-07 00:40:00,48.9,39.0,29.99,SW,223,2.0,-999.0,70,-99.99,,,0.00,weatherlink.com 1.10,2013-05-07 07:40:00,
2013-05-07 00:55:00,48.0,39.0,29.99,SW,215,2.0,-999.0,71,-99.99,,,0.00,weatherlink.com 1.10,2013-05-07 07:55:00,
2013-05-07 01:11:00,47.3,39.0,29.99,SW,220,0.0,-999.0,73,-99.99,,,0.00,weatherlink.com 1.10,2013-05-07 08:11:00,
2013-05-07 01:26:00,46.8,39.0,29.98,SW,221,0.0,-999.0,74,-99.99,,,0.00,weatherlink.com 1.10,2013-05-07 08:26:00,
2013-05-07 01:41:00,46.7,39.0,29.98,SW,221,0.0,-999.0,74,-99.99,,,0.00,weatherlink.com 1.10,2013-05-07 08:41:00,
2013-05-07 01:56:00,46.4,39.0,29.98,SW,220,0.0,-999.0,74,-99.99,,,0.00,weatherlink.com 1.10,2013-05-07 08:56:00,
2013-05-07 02:11:00,46.7,39.0,29.98,South,183,3.0,-999.0,75,-99.99,,,0.00,weatherlink.com 1.10,2013-05-07 09:11:00,
2013-05-07 02:26:00,47.1,39.0,29.96,South,184,1.0,-999.0,74,-99.99,,,0.00,weatherlink.com 1.10,2013-05-07 09:26:00,
2013-05-07 02:41:00,47.0,39.0,29.96,South,186,0.0,-999.0,74,-99.99,,,0.00,weatherlink.com 1.10,2013-05-07 09:41:00,
2013-05-07 02:56:00,46.7,39.0,29.96,South,179,6.0,-999.0,75,-99.99,,,0.00,weatherlink.com 1.10,2013-05-07 09:56:00,
2013-05-07 03:11:00,46.4,39.0,29.96,South,186,0.0,-999.0,75,-99.99,,,0.00,weatherlink.com 1.10,2013-05-07 10:11:00,
2013-05-07 03:26:00,47.0,39.0,29.96,SSW,193,7.0,-999.0,74,-99.99,,,0.00,weatherlink.com 1.10,2013-05-07 10:26:00,
2013-05-07 03:41:00,47.1,39.0,29.96,South,176,0.0,-999.0,73,-99.99,,,0.00,weatherlink.com 1.10,2013-05-07 10:41:00,
2013-05-07 03:56:00,46.5,39.0,29.96,South,182,4.0,-999.0,75,-99.99,,,0.00,weatherlink.com 1.10,2013-05-07 10:56:00,
2013-05-07 04:12:00,46.8,39.0,29.96,South,182,9.0,-999.0,74,-99.99,,,0.00,weatherlink.com 1.10,2013-05-07 11:12:00,
2013-05-07 04:27:00,47.4,40.0,29.95,South,178,14.0,-999.0,74,-99.99,,,0.00,weatherlink.com 1.10,2013-05-07 11:27:00,
2013-05-07 04:42:00,48.2,41.0,29.94,South,190,11.0,-999.0,75,-99.99,,,0.00,weatherlink.com 1.10,2013-05-07 11:42:00,
2013-05-07 04:57:00,48.0,41.0,29.94,South,191,8.0,-999.0,77,-99.99,,,0.00,weatherlink.com 1.10,2013-05-07 11:57:00,
2013-05-07 05:12:00,48.0,41.0,29.94,South,180,11.0,-999.0,78,-99.99,,,0.00,weatherlink.com 1.10,2013-05-07 12:12:00,
2013-05-07 05:27:00,47.4,41.0,29.95,SSW,192,0.0,-999.0,78,-99.99,,,0.00,weatherlink.com 1.10,2013-05-07 12:27:00,
2013-05-07 05:42:00,46.4,40.0,29.96,SSW,194,0.0,-999.0,78,-99.99,,,0.00,weatherlink.com 1.10,2013-05-07 12:42:00,
2013-05-07 05:57:00,45.7,40.0,29.96,SSW,193,0.0,-999.0,79,-99.99,,,0.00,weatherlink.com 1.10,2013-05-07 12:57:00,
2013-05-07 06:12:00,45.8,40.0,29.96,South,190,1.0,-999.0,79,-99.99,,,0.00,weatherlink.com 1.10,2013-05-07 13:12:00,
2013-05-07 06:27:00,46.0,40.0,29.98,SSW,212,0.0,-999.0,79,-99.99,,,0.00,weatherlink.com 1.10,2013-05-07 13:27:00,
2013-05-07 06:42:00,45.7,39.0,29.98,WSW,250,4.0,-999.0,77,-99.99,,,0.00,weatherlink.com 1.10,2013-05-07 13:42:00,
2013-05-07 06:57:00,46.2,39.0,29.98,WSW,250,0.0,-999.0,77,-99.99,,,0.00,weatherlink.com 1.10,2013-05-07 13:57:00,
2013-05-07 07:12:00,48.0,41.0,29.99,WSW,250,0.0,-999.0,76,-99.99,,,0.00,weatherlink.com 1.10,2013-05-07 14:12:00,
2013-05-07 07:28:00,52.3,42.0,29.99,SSW,198,9.0,-999.0,68,-99.99,,,0.00,weatherlink.com 1.10,2013-05-07 14:28:00,
2013-05-07 07:43:00,54.5,41.0,29.98,SW,227,5.0,-999.0,61,-99.99,,,0.00,weatherlink.com 1.10,2013-05-07 14:43:00,
2013-05-07 07:58:00,54.7,42.0,29.97,SSW,212,15.0,-999.0,62,-99.99,,,0.00,weatherlink.com 1.10,2013-05-07 14:58:00,
2013-05-07 08:13:00,54.7,42.0,29.97,West,262,13.0,-999.0,63,-99.99,,,0.00,weatherlink.com 1.10,2013-05-07 15:13:00,
2013-05-07 08:28:00,54.8,42.0,29.98,SW,232,5.0,-999.0,62,-99.99,,,0.00,weatherlink.com 1.10,2013-05-07 15:28:00,
2013-05-07 08:43:00,55.3,41.0,29.98,SW,217,12.0,-999.0,59,-99.99,,,0.00,weatherlink.com 1.10,2013-05-07 15:43:00,
2013-05-07 08:58:00,55.4,40.0,29.99,WSW,242,10.0,-999.0,57,-99.99,,,0.00,weatherlink.com 1.10,2013-05-07 15:58:00,
2013-05-07 09:13:00,57.2,41.0,29.99,SW,223,12.0,-999.0,56,-99.99,,,0.00,weatherlink.com 1.10,2013-05-07 16:13:00,
2013-05-07 09:28:00,56.6,41.0,29.99,WSW,244,9.0,-999.0,56,-99.99,,,0.00,weatherlink.com 1.10,2013-05-07 16:28:00,
2013-05-07 09:43:00,57.2,40.0,29.99,SSW,210,7.0,-999.0,54,-99.99,,,0.00,weatherlink.com 1.10,2013-05-07 16:43:00,
2013-05-07 09:58:00,58.1,40.0,29.99,SSW,206,10.0,-999.0,51,-99.99,,,0.00,weatherlink.com 1.10,2013-05-07 16:58:00,
2013-05-07 10:14:00,59.8,40.0,29.99,WSW,247,9.0,-999.0,48,-99.99,,,0.00,weatherlink.com 1.10,2013-05-07 17:14:00,
2013-05-07 10:29:00,60.1,40.0,29.99,SSW,200,9.0,-999.0,47,-99.99,,,0.00,weatherlink.com 1.10,2013-05-07 17:29:00,
2013-05-07 10:44:00,61.2,39.0,29.99,SSW,202,10.0,-999.0,44,-99.99,,,0.00,weatherlink.com 1.10,2013-05-07 17:44:00,
2013-05-07 10:59:00,60.9,40.0,29.98,SW,216,4.0,-999.0,46,-99.99,,,0.00,weatherlink.com 1.10,2013-05-07 17:59:00,
2013-05-07 11:14:00,62.7,40.0,29.98,South,185,11.0,-999.0,43,-99.99,,,0.00,weatherlink.com 1.10,2013-05-07 18:14:00,
2013-05-07 11:29:00,63.9,40.0,29.98,WSW,237,9.0,-999.0,41,-99.99,,,0.00,weatherlink.com 1.10,2013-05-07 18:29:00,
2013-05-07 11:44:00,64.8,38.0,29.97,SSW,213,12.0,-999.0,38,-99.99,,,0.00,weatherlink.com 1.10,2013-05-07 18:44:00,
2013-05-07 11:59:00,64.7,37.0,29.96,South,181,9.0,-999.0,36,-99.99,,,0.00,weatherlink.com 1.10,2013-05-07 18:59:00,
2013-05-07 12:14:00,65.0,37.0,29.96,WSW,242,10.0,-999.0,35,-99.99,,,0.00,weatherlink.com 1.10,2013-05-07 19:14:00,
2013-05-07 12:29:00,65.0,36.0,29.96,WSW,252,10.0,-999.0,34,-99.99,,,0.00,weatherlink.com 1.10,2013-05-07 19:29:00,
2013-05-07 12:44:00,64.2,37.0,29.96,WSW,257,9.0,-999.0,36,-99.99,,,0.00,weatherlink.com 1.10,2013-05-07 19:44:00,
2013-05-07 13:00:00,64.3,36.0,29.95,West,276,17.0,-999.0,35,-99.99,,,0.00,weatherlink.com 1.10,2013-05-07 20:00:00,
2013-05-07 13:15:00,66.4,36.0,29.96,WSW,245,15.0,-999.0,33,-99.99,,,0.00,weatherlink.com 1.10,2013-05-07 20:15:00,
2013-05-07 13:30:00,65.5,36.0,29.95,West,274,15.0,-999.0,33,-99.99,,,0.00,weatherlink.com 1.10,2013-05-07 20:30:00,
2013-05-07 13:45:00,66.0,34.0,29.95,SSW,209,10.0,-999.0,31,-99.99,,,0.00,weatherlink.com 1.10,2013-05-07 20:45:00,
2013-05-07 14:00:00,65.0,34.0,29.96,West,263,9.0,-999.0,32,-99.99,,,0.00,weatherlink.com 1.10,2013-05-07 21:00:00,
2013-05-07 14:15:00,64.7,34.0,29.96,West,267,10.0,-999.0,32,-99.99,,,0.00,weatherlink.com 1.10,2013-05-07 21:15:00,
2013-05-07 14:30:00,64.8,34.0,29.96,West,260,13.0,-999.0,32,-99.99,,,0.00,weatherlink.com 1.10,2013-05-07 21:30:00,
2013-05-07 14:45:00,66.8,33.0,29.95,WNW,286,12.0,-999.0,29,-99.99,,,0.00,weatherlink.com 1.10,2013-05-07 21:45:00,
2013-05-07 15:00:00,65.3,34.0,29.95,WSW,241,11.0,-999.0,31,-99.99,,,0.00,weatherlink.com 1.10,2013-05-07 22:00:00,
2013-05-07 15:15:00,65.5,34.0,29.95,WSW,258,14.0,-999.0,31,-99.99,,,0.00,weatherlink.com 1.10,2013-05-07 22:15:00,
2013-05-07 15:30:00,65.8,33.0,29.95,WNW,283,10.0,-999.0,29,-99.99,,,0.00,weatherlink.com 1.10,2013-05-07 22:30:00,
2013-05-07 15:45:00,66.9,33.0,29.95,West,268,14.0,-999.0,28,-99.99,,,0.00,weatherlink.com 1.10,2013-05-07 22:45:00,
2013-05-07 16:01:00,68.3,33.0,29.95,WSW,248,17.0,-999.0,27,-99.99,,,0.00,weatherlink.com 1.10,2013-05-07 23:01:00,
2013-05-07 16:16:00,66.6,32.0,29.95,West,271,12.0,-999.0,28,-99.99,,,0.00,weatherlink.com 1.10,2013-05-07 23:16:00,
2013-05-07 16:31:00,67.3,33.0,29.95,WNW,282,14.0,-999.0,28,-99.99,,,0.00,weatherlink.com 1.10,2013-05-07 23:31:00,
2013-05-07 16:46:00,67.8,33.0,29.94,SW,236,13.0,-999.0,28,-99.99,,,0.00,weatherlink.com 1.10,2013-05-07 23:46:00,
2013-05-07 17:00:00,67.8,32.0,29.94,SW,227,13.0,-999.0,27,-99.99,,,0.00,weatherlink.com 1.10,2013-05-08 00:00:00,
2013-05-07 17:16:00,66.9,33.0,29.95,SW,233,12.0,-999.0,28,-99.99,,,0.00,weatherlink.com 1.10,2013-05-08 00:16:00,
2013-05-07 17:31:00,66.6,32.0,29.96,SW,227,12.0,-999.0,28,-99.99,,,0.00,weatherlink.com 1.10,2013-05-08 00:31:00,
2013-05-07 17:46:00,66.4,31.0,29.96,West,271,13.0,-999.0,27,-99.99,,,0.00,weatherlink.com 1.10,2013-05-08 00:46:00,
2013-05-07 18:01:00,66.4,34.0,29.95,NNW,340,7.0,-999.0,30,-99.99,,,0.00,weatherlink.com 1.10,2013-05-08 01:01:00,
2013-05-07 18:16:00,66.1,35.0,29.96,SW,223,2.0,-999.0,32,-99.99,,,0.00,weatherlink.com 1.10,2013-05-08 01:16:00,
2013-05-07 18:31:00,65.2,37.0,29.95,WSW,254,11.0,-999.0,35,-99.99,,,0.00,weatherlink.com 1.10,2013-05-08 01:31:00,
2013-05-07 18:46:00,63.5,36.0,29.95,WNW,288,14.0,-999.0,36,-99.99,,,0.00,weatherlink.com 1.10,2013-05-08 01:46:00,
2013-05-07 19:01:00,63.4,36.0,29.96,WSW,250,9.0,-999.0,37,-99.99,,,0.00,weatherlink.com 1.10,2013-05-08 02:01:00,
2013-05-07 19:16:00,62.4,36.0,29.95,WNW,288,9.0,-999.0,37,-99.99,,,0.00,weatherlink.com 1.10,2013-05-08 02:16:00,
2013-05-07 19:31:00,60.9,38.0,29.96,WSW,249,7.0,-999.0,43,-99.99,,,0.00,weatherlink.com 1.10,2013-05-08 02:31:00,
2013-05-07 19:46:00,59.8,38.0,29.96,WSW,254,7.0,-999.0,45,-99.99,,,0.00,weatherlink.com 1.10,2013-05-08 02:46:00,
2013-05-07 20:01:00,59.2,38.0,29.96,SW,236,10.0,-999.0,46,-99.99,,,0.00,weatherlink.com 1.10,2013-05-08 03:01:00,
2013-05-07 20:16:00,58.9,38.0,29.96,South,190,2.0,-999.0,47,-99.99,,,0.00,weatherlink.com 1.10,2013-05-08 03:16:00,
2013-05-07 20:32:00,58.1,38.0,29.96,South,186,2.0,-999.0,48,-99.99,,,0.00,weatherlink.com 1.10,2013-05-08 03:32:00,
2013-05-07 20:47:00,57.2,40.0,29.98,South,179,10.0,-999.0,54,-99.99,,,0.00,weatherlink.com 1.10,2013-05-08 03:47:00,
2013-05-07 21:02:00,56.3,41.0,29.98,South,188,5.0,-999.0,57,-99.99,,,0.00,weatherlink.com 1.10,2013-05-08 04:02:00,
2013-05-07 21:17:00,55.1,42.0,29.98,SSW,192,2.0,-999.0,61,-99.99,,,0.00,weatherlink.com 1.10,2013-05-08 04:17:00,
2013-05-07 21:32:00,54.7,41.0,29.98,SSW,200,7.0,-999.0,61,-99.99,,,0.00,weatherlink.com 1.10,2013-05-08 04:32:00,
2013-05-07 21:47:00,54.4,41.0,29.98,South,185,3.0,-999.0,62,-99.99,,,0.00,weatherlink.com 1.10,2013-05-08 04:47:00,
2013-05-07 22:02:00,54.1,42.0,29.99,South,179,9.0,-999.0,63,-99.99,,,0.00,weatherlink.com 1.10,2013-05-08 05:02:00,
2013-05-07 22:17:00,53.1,42.0,29.99,SSW,202,10.0,-999.0,67,-99.99,,,0.00,weatherlink.com 1.10,2013-05-08 05:17:00,
2013-05-07 22:32:00,52.9,43.0,29.99,South,186,7.0,-999.0,68,-99.99,,,0.00,weatherlink.com 1.10,2013-05-08 05:32:00,
2013-05-07 22:47:00,52.6,43.0,29.99,SSW,195,8.0,-999.0,69,-99.99,,,0.00,weatherlink.com 1.10,2013-05-08 05:47:00,
2013-05-07 23:02:00,52.5,43.0,30.00,South,173,9.0,-999.0,69,-99.99,,,0.00,weatherlink.com 1.10,2013-05-08 06:02:00,
2013-05-07 23:17:00,52.5,43.0,29.98,South,184,16.0,-999.0,69,-99.99,,,0.00,weatherlink.com 1.10,2013-05-08 06:17:00,
2013-05-07 23:32:00,51.9,42.0,29.99,South,190,9.0,-999.0,70,-99.99,,,0.00,weatherlink.com 1.10,2013-05-08 06:32:00,
2013-05-07 23:48:00,52.0,43.0,29.99,South,177,13.0,-999.0,71,-99.99,,,0.00,weatherlink.com 1.10,2013-05-08 06:48:00,